• Join FlightAware (Why Join?)
  • Login
  • US Flag 
09:18AM EDT


 

Airport Tracker/Info


-or-


 

Live Flight TrackerFlight Track Log ✈ SWA631 ✈ 21-Jun-2013 ✈ KMDW - KDEN

Flight Track Log - Related Links

Times and Time Zones

All times are in EDT time to prevent confusion due to time zone crossing. See the SWA631 flight status page for this flight to view local times or setup timezone preferences in your user account.

Time Position Orientation Groundspeed Altitude Reporting Facility
EDT Latitude Longitude Course Direction KTS MPH feet Rate Location/Type
07:24AM 41.7667 -87.8167 263° West 179 206 3,300  Level Chicago TRACON
07:25AM 41.7500 -87.8833 251° West 242 278 5,500 3,000 Climbing Chicago TRACON
07:26AM 41.7500 -87.9833 270° West 277 319 9,000 3,300 Climbing Chicago TRACON
07:27AM 41.7500 -88.0833 270° West 283 326 11,900 1,620 Climbing Chicago TRACON
07:28AM 41.7419 -88.2197 266° West 305 351 12,600 1,260 Climbing Chicago Center
07:29AM 41.7400 -88.3583 269° West 373 429 14,900 2,340 Climbing Chicago Center
07:30AM 41.7276 -88.6500 263° West  Level FlightAware Approximate
07:31AM 41.7456 -88.5025 273° West 391 450 17,400  Level Chicago Center
07:32AM 41.7506 -88.6564 273° West 414 476 19,600 2,220 Climbing Chicago Center
07:33AM 41.7553 -88.8139 272° West 425 489 22,000 2,340 Climbing Chicago Center
07:34AM 41.7622 -89.0094 273° West 439 505 24,400 1,920 Climbing Chicago Center
07:35AM 41.7489 -89.1769 264° West 453 521 26,000 1,980 Climbing Chicago Center
07:36AM 41.7364 -89.3489 264° West 464 534 28,500 2,220 Climbing Chicago Center
07:37AM 41.7228 -89.5133 264° West 456 525 30,600 1,800 Climbing Chicago Center
07:38AM 41.7108 -89.6786 265° West 451 519 32,300 1,560 Climbing Chicago Center
07:39AM 41.6972 -89.8464 264° West 453 521 33,900 1,500 Climbing Chicago Center
07:40AM 41.6839 -90.0128 264° West 454 522 35,400 1,320 Climbing Chicago Center
07:41AM 41.6706 -90.1767 264° West 450 518 36,700 1,260 Climbing Chicago Center
07:42AM 41.6522 -90.3800 263° West 464 534 38,000 600 Climbing Chicago Center
07:43AM 41.6383 -90.5483 264° West 460 529 38,000  Level Chicago Center
07:44AM 41.6219 -90.7125 262° West 455 524 38,000  Level Chicago Center
07:45AM 41.6083 -90.8786 264° West 452 520 38,000  Level Chicago Center
07:46AM 41.5928 -91.0458 263° West 455 524 38,000 240 Level Chicago Center
07:47AM 41.5756 -91.2125 262° West 457 526 38,600 600 Climbing Chicago Center
07:48AM 41.5581 -91.3811 262° West 461 531 39,300 660 Climbing Chicago Center
07:49AM 41.5369 -91.5864 262° West 467 537 40,000 300 Climbing Chicago Center
07:50AM 41.5194 -91.7578 262° West 469 540 40,000  Level Chicago Center
07:51AM 41.5006 -91.9261 262° West 464 534 40,000  Level Chicago Center
07:52AM 41.4825 -92.0953 262° West 463 533 40,000  Level Chicago Center
07:53AM 41.4639 -92.2628 262° West 461 531 40,000  Level Chicago Center
07:54AM 41.4456 -92.4306 262° West 456 525 40,000  Level Chicago Center
07:55AM 41.4258 -92.5967 261° West 458 527 40,000  Level Chicago Center
07:56AM 41.4122 -92.7297 262° West 457 526 40,000  Level Minneapolis Center
07:57AM 41.3917 -92.8953 261° West 457 526 40,000  Level Minneapolis Center
07:58AM 41.3728 -93.0628 262° West 460 529 40,000  Level Minneapolis Center
07:59AM 41.3528 -93.2311 261° West 463 533 40,000  Level Minneapolis Center
08:00AM 41.3317 -93.3989 261° West 464 534 40,000  Level Minneapolis Center
08:01AM 41.3117 -93.5678 261° West 467 537 40,000  Level Minneapolis Center
08:02AM 41.2917 -93.7364 261° West 467 537 40,000  Level Minneapolis Center
08:03AM 41.2653 -93.9456 261° West 480 552 40,000  Level Minneapolis Center
08:04AM 41.2439 -94.1208 261° West 485 558 40,000  Level Minneapolis Center
08:05AM 41.2186 -94.3097 260° West 486 559 40,000  Level Minneapolis Center
08:06AM 41.1964 -94.4858 261° West 484 557 40,000  Level Minneapolis Center
08:07AM 41.1739 -94.6628 260° West 486 559 40,000  Level Minneapolis Center
08:08AM 41.1475 -94.8403 259° West 488 562 40,000  Level Minneapolis Center
08:09AM 41.1244 -95.0158 260° West 485 558 40,000  Level Minneapolis Center
08:10AM 41.1000 -95.1903 260° West 481 554 40,000  Level Minneapolis Center
08:11AM 41.0744 -95.3628 259° West 476 548 40,000  Level Minneapolis Center
08:12AM 41.0508 -95.5347 260° West 473 544 40,000  Level Minneapolis Center
08:13AM 41.0253 -95.7008 259° West 464 534 40,000  Level Minneapolis Center
08:14AM 41.0022 -95.8672 260° West 458 527 40,000  Level Minneapolis Center
08:15AM 40.9792 -96.0336 260° West 456 525 40,000  Level Minneapolis Center
08:16AM 40.9558 -96.1947 259° West 445 512 40,000  Level Minneapolis Center
08:17AM 40.9322 -96.3544 259° West 441 507 40,000  Level Minneapolis Center
08:18AM 40.9078 -96.5122 258° West 438 504 40,000  Level Minneapolis Center
08:19AM 40.8797 -96.7019 259° West 437 503 40,000  Level Minneapolis Center
08:20AM 40.8558 -96.8592 259° West 436 502 40,000  Level Minneapolis Center
08:21AM 40.8322 -97.0147 259° West 433 498 40,000  Level Minneapolis Center
08:22AM 40.8081 -97.1700 258° West 433 498 40,000  Level Minneapolis Center
08:23AM 40.7828 -97.3275 258° West 436 502 40,000  Level Minneapolis Center
08:24AM 40.7592 -97.4778 258° West 437 503 40,000  Level Minneapolis Center
08:25AM 40.7347 -97.6331 258° West 434 499 40,000  Level Minneapolis Center
08:26AM 40.7089 -97.7889 258° West 433 498 40,000  Level Minneapolis Center
08:27AM 40.6789 -97.9736 258° West 431 496 40,000  Level Minneapolis Center
08:28AM 40.6544 -98.1261 258° West 427 491 40,000  Level Minneapolis Center
08:29AM 40.6294 -98.2769 258° West 422 486 40,000  Level Minneapolis Center
08:30AM 40.6058 -98.4283 258° West 421 484 40,000  Level Minneapolis Center
08:31AM 40.6169 -98.5811 276° West 422 486 40,000  Level Minneapolis Center
08:32AM 40.6308 -98.7336 277° West 418 481 40,000  Level Minneapolis Center
08:34AM 40.6453 -98.8867 277° West 419 482 40,000  Level Minneapolis Center
08:35AM 40.6578 -99.0394 276° West 418 481 40,000  Level Minneapolis Center
08:36AM 40.6706 -99.1914 276° West 416 479 40,000  Level Minneapolis Center
08:37AM 40.6833 -99.3447 276° West 417 480 40,000  Level Minneapolis Center
08:38AM 40.6975 -99.4986 277° West 420 483 40,000  Level Minneapolis Center
08:39AM 40.7097 -99.6519 276° West 420 483 40,000  Level Minneapolis Center
08:40AM 40.7242 -99.8353 276° West 419 482 40,000  Level Minneapolis Center
08:41AM 40.7364 -99.9883 276° West 418 481 40,000  Level Minneapolis Center
08:42AM 40.7489 -100.1408 276° West 418 481 40,000  Level Minneapolis Center
08:43AM 40.7611 -100.2944 276° West 420 483 40,000  Level Minneapolis Center
08:44AM 40.7714 -100.4464 275° West 418 481 40,000  Level Minneapolis Center
08:45AM 40.7794 -100.5994 274° West 418 481 40,000  Level Minneapolis Center
08:46AM 40.7386 -100.7886 254° West 428 493 40,000  Level Denver Center
08:47AM 40.7161 -100.9347 259° West 422 486 40,000  Level Denver Center
08:48AM 40.6925 -101.0803 258° West 422 486 40,000  Level Denver Center
08:49AM 40.6636 -101.2494 257° West 424 488 40,000  Level Denver Center
08:50AM 40.6400 -101.3947 258° West 425 489 40,000  Level Denver Center
08:51AM 40.6153 -101.5394 257° West 424 488 40,000  Level Denver Center
08:52AM 40.5869 -101.7092 258° West 425 489 40,000  Level Denver Center
08:53AM 40.5614 -101.8553 257° West 428 493 40,000  Level Denver Center
08:54AM 40.5369 -102.0008 258° West 427 491 40,000  Level Denver Center
08:55AM 40.5167 -102.1197 257° West 419 482 40,000  Level Denver Center
08:56AM 40.4836 -102.3033 257° West 406 467 40,000 -60 Level Denver Center
08:57AM 40.4589 -102.4422 257° West 408 470 39,900 -1,200 Descending Denver Center
08:58AM 40.4317 -102.5989 257° West 397 457 37,600 -2,460 Descending Denver Center
08:59AM 40.4053 -102.7444 257° West 394 453 35,000 -2,700 Descending Denver Center
09:00AM 40.3789 -102.8900 257° West 409 471 32,200 -2,580 Descending Denver Center
09:01AM 40.3519 -103.0417 257° West 426 490 29,800 -2,340 Descending Denver Center
09:02AM 40.3242 -103.1883 256° West 419 482 27,500 -2,280 Descending Denver Center
09:03AM 40.2981 -103.3336 257° West 412 474 25,200 -1,980 Descending Denver Center
09:04AM 40.2767 -103.4439 256° West 399 459 23,500 -2,100 Descending Denver Center
09:05AM 40.2469 -103.6058 257° West 384 442 21,000 -2,400 Descending Denver Center
09:06AM 40.2197 -103.7486 256° West 377 434 18,700 -1,680 Descending Denver Center
09:07AM 40.2017 -103.8656 259° West 323 372 17,700 -1,620 Descending Denver Center
09:08AM 40.2142 -103.9950 277° West 336 387 15,500 -1,680 Descending Denver Center
09:09AM 40.2231 -104.1050 276° West 310 357 14,400 -1,200 Descending Denver Center
09:10AM 40.2339 -104.2125 278° West 303 349 13,100 -1,320 Descending Denver Center
09:11AM 40.2433 -104.3153 277° West 288 331 11,700 -1,140 Descending Denver Center
09:12AM 40.2536 -104.4236 277° West 283 326 10,900 -1,320 Descending Denver Center
09:13AM 40.2264 -104.5119 248° West 275 316 9,100 -1,500 Descending Denver Center
09:14AM 40.1617 -104.5658 212° Southwest 275 316 7,900 -1,020 Descending Denver Center
09:15AM 40.0953 -104.6147 209° Southwest 273 314 7,100 -480 Descending Denver Center
09:16AM 40.0333 -104.6606 210° Southwest 227 261 7,000 -60 Descending Denver Center
09:17AM 39.9889 -104.6858 204° Southwest 173 199 7,000 -420 Level Denver Center
09:19AM 39.9431 -104.6861 180° South 163 188 6,200 -840 Descending Denver Center
09:20AM 39.9008 -104.6867 181° South 154 177 5,400 -840 Descending Denver Center
09:22AM 39.8617 -104.6732 North  Level Estimated
09:29AM 39.8617 -104.6732 North  Level Estimated
09:30AM 39.8617 -104.6732 North  Level Estimated